Time,TemperatureF,DewpointF,PressureIn,WindDirection,WindDirectionDegrees,WindSpeedMPH,WindSpeedGustMPH,Humidity,HourlyPrecipIn,Conditions,Clouds,dailyrainin,SoftwareType,DateUTC
2013-11-01 00:00:00,52.9,52.6,29.05,WSW,241,6.0,6.0,99,0.00,,,0.52,Wunderground v.1.15,2013-11-01 04:00:00,
2013-11-01 00:05:00,52.9,52.6,29.05,WSW,242,5.0,6.0,99,0.00,,,0.00,Wunderground v.1.15,2013-11-01 04:05:00,
2013-11-01 00:10:00,52.8,52.5,29.04,WSW,242,4.0,4.0,99,0.00,,,0.00,Wunderground v.1.15,2013-11-01 04:10:00,
2013-11-01 00:15:00,52.8,52.5,29.04,WSW,242,5.0,7.0,99,0.00,,,0.01,Wunderground v.1.15,2013-11-01 04:15:00,
2013-11-01 00:25:00,52.8,52.5,29.04,WSW,242,6.0,7.0,99,0.07,,,0.02,Wunderground v.1.15,2013-11-01 04:25:00,
2013-11-01 00:30:00,52.8,52.5,29.04,WSW,241,7.0,7.0,99,0.07,,,0.02,Wunderground v.1.15,2013-11-01 04:30:00,
2013-11-01 00:35:00,52.8,52.5,29.04,WSW,241,7.0,7.0,99,0.08,,,0.03,Wunderground v.1.15,2013-11-01 04:35:00,
2013-11-01 00:40:00,52.8,52.5,29.04,WSW,238,6.0,6.0,99,0.13,,,0.04,Wunderground v.1.15,2013-11-01 04:40:00,
2013-11-01 00:45:00,52.9,52.6,29.04,WSW,243,6.0,6.0,99,0.10,,,0.05,Wunderground v.1.15,2013-11-01 04:45:00,
2013-11-01 00:55:00,52.9,52.6,29.03,WSW,243,6.0,8.0,99,0.09,,,0.06,Wunderground v.1.15,2013-11-01 04:55:00,
2013-11-01 01:00:00,52.9,52.6,29.03,WSW,237,7.0,7.0,99,0.05,,,0.06,Wunderground v.1.15,2013-11-01 05:00:00,
2013-11-01 01:05:00,52.8,52.5,29.03,WSW,239,7.0,8.0,99,0.04,,,0.07,Wunderground v.1.15,2013-11-01 05:05:00,
2013-11-01 01:15:00,52.6,52.3,29.02,WSW,257,8.0,9.0,99,0.04,,,0.07,Wunderground v.1.15,2013-11-01 05:15:00,
2013-11-01 01:20:00,52.4,52.1,29.02,WSW,257,9.0,9.0,99,0.00,,,0.07,Wunderground v.1.15,2013-11-01 05:20:00,
2013-11-01 01:30:00,52.2,51.9,29.02,WSW,248,9.0,9.0,99,0.00,,,0.07,Wunderground v.1.15,2013-11-01 05:30:00,
2013-11-01 01:35:00,52.2,51.9,29.02,WSW,248,9.0,9.0,99,0.00,,,0.07,Wunderground v.1.15,2013-11-01 05:35:00,
2013-11-01 01:40:00,52.1,51.8,29.01,WSW,248,8.0,8.0,99,0.00,,,0.07,Wunderground v.1.15,2013-11-01 05:40:00,
2013-11-01 01:45:00,52.2,51.9,29.02,WSW,257,8.0,10.0,99,0.00,,,0.07,Wunderground v.1.15,2013-11-01 05:45:00,
2013-11-01 01:50:00,52.2,51.9,29.02,WSW,256,8.0,9.0,99,0.00,,,0.07,Wunderground v.1.15,2013-11-01 05:50:00,
2013-11-01 01:55:00,52.2,51.9,29.02,WSW,251,8.0,9.0,99,0.00,,,0.07,Wunderground v.1.15,2013-11-01 05:55:00,
2013-11-01 02:00:00,52.1,51.8,29.00,West,261,9.0,9.0,99,0.00,,,0.07,Wunderground v.1.15,2013-11-01 06:00:00,
2013-11-01 02:05:00,52.1,51.8,29.01,West,259,9.0,9.0,99,0.00,,,0.07,Wunderground v.1.15,2013-11-01 06:05:00,
2013-11-01 02:15:00,52.1,51.8,29.01,WSW,256,9.0,10.0,99,0.00,,,0.07,Wunderground v.1.15,2013-11-01 06:15:00,
2013-11-01 02:20:00,52.2,51.9,29.01,WSW,245,8.0,8.0,99,0.00,,,0.07,Wunderground v.1.15,2013-11-01 06:20:00,
2013-11-01 02:25:00,52.1,51.8,29.01,WSW,248,8.0,8.0,99,0.00,,,0.07,Wunderground v.1.15,2013-11-01 06:25:00,
2013-11-01 02:35:00,52.0,51.7,29.01,WSW,246,8.0,9.0,99,0.00,,,0.08,Wunderground v.1.15,2013-11-01 06:35:00,
2013-11-01 02:40:00,52.0,51.7,29.01,WSW,244,7.0,8.0,99,0.00,,,0.08,Wunderground v.1.15,2013-11-01 06:40:00,
2013-11-01 02:45:00,52.0,51.7,29.01,WSW,240,8.0,8.0,99,0.00,,,0.08,Wunderground v.1.15,2013-11-01 06:45:00,
2013-11-01 02:55:00,51.7,51.4,29.01,WSW,248,9.0,11.0,99,0.00,,,0.08,Wunderground v.1.15,2013-11-01 06:55:00,
2013-11-01 03:00:00,51.5,51.2,29.01,WSW,238,10.0,11.0,99,0.00,,,0.08,Wunderground v.1.15,2013-11-01 07:00:00,
2013-11-01 03:05:00,51.3,51.0,29.01,WSW,238,13.0,14.0,99,0.00,,,0.08,Wunderground v.1.15,2013-11-01 07:05:00,
2013-11-01 03:15:00,50.8,50.5,29.01,WSW,242,14.0,16.0,99,0.00,,,0.08,Wunderground v.1.15,2013-11-01 07:15:00,
2013-11-01 03:20:00,51.0,50.7,29.01,WSW,244,13.0,13.0,99,0.00,,,0.08,Wunderground v.1.15,2013-11-01 07:20:00,
2013-11-01 03:25:00,51.0,50.7,29.01,SW,234,13.0,13.0,99,0.00,,,0.08,Wunderground v.1.15,2013-11-01 07:25:00,
2013-11-01 03:30:00,51.0,50.7,29.01,WSW,244,14.0,14.0,99,0.00,,,0.08,Wunderground v.1.15,2013-11-01 07:30:00,
2013-11-01 03:40:00,50.8,50.5,29.02,WSW,244,15.0,15.0,99,0.00,,,0.08,Wunderground v.1.15,2013-11-01 07:40:00,
2013-11-01 03:45:00,50.2,49.9,29.02,WSW,245,16.0,19.0,99,0.00,,,0.09,Wunderground v.1.15,2013-11-01 07:45:00,
2013-11-01 03:50:00,50.1,49.8,29.02,WSW,252,17.0,17.0,99,0.00,,,0.09,Wunderground v.1.15,2013-11-01 07:50:00,
2013-11-01 03:55:00,49.9,49.6,29.02,WSW,248,17.0,20.0,99,0.00,,,0.09,Wunderground v.1.15,2013-11-01 07:55:00,
2013-11-01 04:00:00,49.9,49.6,29.02,WSW,250,19.0,19.0,99,0.00,,,0.09,Wunderground v.1.15,2013-11-01 08:00:00,
2013-11-01 04:05:00,49.9,49.6,29.03,WSW,242,19.0,19.0,99,0.00,,,0.10,Wunderground v.1.15,2013-11-01 08:05:00,
2013-11-01 04:15:00,49.7,49.4,29.03,WSW,254,19.0,22.0,99,0.00,,,0.10,Wunderground v.1.15,2013-11-01 08:15:00,
2013-11-01 04:20:00,49.5,49.2,29.04,WSW,246,19.0,19.0,99,0.00,,,0.10,Wunderground v.1.15,2013-11-01 08:20:00,
2013-11-01 04:25:00,49.6,49.3,29.04,WSW,248,18.0,19.0,99,0.00,,,0.11,Wunderground v.1.15,2013-11-01 08:25:00,
2013-11-01 04:30:00,49.4,49.1,29.05,WSW,250,18.0,18.0,99,0.00,,,0.11,Wunderground v.1.15,2013-11-01 08:30:00,
2013-11-01 04:35:00,49.2,48.9,29.05,WSW,257,19.0,19.0,99,0.00,,,0.11,Wunderground v.1.15,2013-11-01 08:35:00,
2013-11-01 04:45:00,49.2,48.9,29.06,WSW,247,20.0,20.0,99,0.00,,,0.12,Wunderground v.1.15,2013-11-01 08:45:00,
2013-11-01 04:50:00,49.4,48.9,29.06,WSW,249,19.0,19.0,98,0.08,,,0.13,Wunderground v.1.15,2013-11-01 08:50:00,
2013-11-01 04:55:00,49.4,48.9,29.06,WSW,246,18.0,19.0,98,0.09,,,0.14,Wunderground v.1.15,2013-11-01 08:55:00,
2013-11-01 05:00:00,49.3,48.8,29.07,WSW,244,18.0,18.0,98,0.09,,,0.14,Wunderground v.1.15,2013-11-01 09:00:00,
2013-11-01 05:05:00,49.4,48.9,29.07,WSW,254,19.0,26.0,98,0.07,,,0.15,Wunderground v.1.15,2013-11-01 09:05:00,
2013-11-01 05:15:00,49.3,48.8,29.08,WSW,249,21.0,24.0,98,0.06,,,0.16,Wunderground v.1.15,2013-11-01 09:15:00,
2013-11-01 05:20:00,49.5,49.2,29.08,WSW,250,21.0,21.0,99,0.06,,,0.16,Wunderground v.1.15,2013-11-01 09:20:00,
2013-11-01 05:25:00,49.4,48.9,29.09,WSW,252,21.0,21.0,98,0.04,,,0.16,Wunderground v.1.15,2013-11-01 09:25:00,
2013-11-01 05:30:00,49.5,49.0,29.09,WSW,246,22.0,22.0,98,0.00,,,0.16,Wunderground v.1.15,2013-11-01 09:30:00,
2013-11-01 05:35:00,49.4,48.9,29.09,WSW,247,22.0,22.0,98,0.00,,,0.16,Wunderground v.1.15,2013-11-01 09:35:00,
2013-11-01 05:40:00,49.3,48.8,29.10,WSW,241,21.0,21.0,98,0.00,,,0.17,Wunderground v.1.15,2013-11-01 09:40:00,
2013-11-01 05:50:00,49.2,48.7,29.10,WSW,254,21.0,26.0,98,0.07,,,0.18,Wunderground v.1.15,2013-11-01 09:50:00,
2013-11-01 05:55:00,49.2,48.7,29.11,WSW,246,21.0,26.0,98,0.06,,,0.18,Wunderground v.1.15,2013-11-01 09:55:00,
2013-11-01 06:00:00,49.4,48.9,29.12,West,263,22.0,22.0,98,0.05,,,0.19,Wunderground v.1.15,2013-11-01 10:00:00,
2013-11-01 06:05:00,49.3,48.8,29.12,WSW,252,21.0,22.0,98,0.08,,,0.20,Wunderground v.1.15,2013-11-01 10:05:00,
2013-11-01 06:15:00,49.2,48.7,29.14,West,269,22.0,29.0,98,0.05,,,0.20,Wunderground v.1.15,2013-11-01 10:15:00,
2013-11-01 06:25:00,49.2,48.7,29.14,WSW,254,22.0,24.0,98,0.04,,,0.21,Wunderground v.1.15,2013-11-01 10:25:00,
2013-11-01 06:30:00,49.2,48.7,29.15,WSW,257,21.0,21.0,98,0.06,,,0.22,Wunderground v.1.15,2013-11-01 10:30:00,
2013-11-01 06:35:00,49.1,48.3,29.15,WSW,249,22.0,22.0,97,0.06,,,0.22,Wunderground v.1.15,2013-11-01 10:35:00,
2013-11-01 06:45:00,49.0,48.2,29.17,WSW,252,22.0,23.0,97,0.04,,,0.22,Wunderground v.1.15,2013-11-01 10:45:00,
2013-11-01 06:50:00,49.0,48.2,29.17,WSW,245,22.0,22.0,97,0.00,,,0.23,Wunderground v.1.15,2013-11-01 10:50:00,
2013-11-01 06:55:00,48.9,48.1,29.18,West,264,21.0,27.0,97,0.00,,,0.23,Wunderground v.1.15,2013-11-01 10:55:00,
2013-11-01 07:00:00,48.9,48.1,29.19,WSW,247,22.0,22.0,97,0.00,,,0.23,Wunderground v.1.15,2013-11-01 11:00:00,
2013-11-01 07:05:00,49.0,48.2,29.19,WSW,256,21.0,24.0,97,0.04,,,0.24,Wunderground v.1.15,2013-11-01 11:05:00,
2013-11-01 07:15:00,48.9,48.1,29.20,WSW,254,21.0,24.0,97,0.04,,,0.24,Wunderground v.1.15,2013-11-01 11:15:00,
2013-11-01 07:20:00,48.8,48.0,29.21,WSW,246,20.0,20.0,97,0.04,,,0.24,Wunderground v.1.15,2013-11-01 11:20:00,
2013-11-01 07:30:00,48.7,47.6,29.22,WSW,252,20.0,20.0,96,0.00,,,0.24,Wunderground v.1.15,2013-11-01 11:30:00,
2013-11-01 07:35:00,48.7,47.6,29.22,WSW,252,19.0,20.0,96,0.00,,,0.24,Wunderground v.1.15,2013-11-01 11:35:00,
2013-11-01 07:40:00,48.7,47.6,29.23,WSW,252,20.0,20.0,96,0.00,,,0.24,Wunderground v.1.15,2013-11-01 11:40:00,
2013-11-01 07:45:00,-999.9,-99.9,29.23,North,32767,-999.0,20.0,255,-99.99,,,0.24,Wunderground v.1.15,2013-11-01 11:45:00,
2013-11-01 07:50:00,-999.9,-99.9,29.23,North,32767,-999.0,0.0,255,-99.99,,,0.24,Wunderground v.1.15,2013-11-01 11:50:00,
2013-11-01 07:55:00,-999.9,-99.9,29.24,North,32767,-999.0,0.0,255,-99.99,,,0.24,Wunderground v.1.15,2013-11-01 11:55:00,
2013-11-01 08:05:00,-999.9,-99.9,29.25,North,32767,-999.0,0.0,255,-99.99,,,0.24,Wunderground v.1.15,2013-11-01 12:05:00,
2013-11-01 08:15:00,-999.9,-99.9,29.26,North,32767,-999.0,0.0,255,-99.99,,,0.24,Wunderground v.1.15,2013-11-01 12:15:00,
2013-11-01 08:20:00,-999.9,-99.9,29.27,North,32767,-999.0,0.0,255,-99.99,,,0.24,Wunderground v.1.15,2013-11-01 12:20:00,
2013-11-01 08:25:00,-999.9,-99.9,29.27,North,32767,-999.0,0.0,255,-99.99,,,0.24,Wunderground v.1.15,2013-11-01 12:25:00,
2013-11-01 08:35:00,-999.9,-99.9,29.28,North,32767,-999.0,0.0,255,-99.99,,,0.24,Wunderground v.1.15,2013-11-01 12:35:00,
2013-11-01 08:40:00,-999.9,-99.9,29.29,North,32767,-999.0,0.0,255,-99.99,,,0.24,Wunderground v.1.15,2013-11-01 12:40:00,
2013-11-01 08:45:00,-999.9,-99.9,29.29,North,32767,-999.0,0.0,255,-99.99,,,0.24,Wunderground v.1.15,2013-11-01 12:45:00,
2013-11-01 08:50:00,-999.9,-99.9,29.30,North,32767,-999.0,0.0,255,-99.99,,,0.24,Wunderground v.1.15,2013-11-01 12:50:00,
2013-11-01 08:55:00,-999.9,-99.9,29.30,North,32767,-999.0,0.0,255,-99.99,,,0.24,Wunderground v.1.15,2013-11-01 12:55:00,
2013-11-01 09:00:00,-999.9,-99.9,29.31,North,32767,-999.0,0.0,255,-99.99,,,0.24,Wunderground v.1.15,2013-11-01 13:00:00,
2013-11-01 09:05:00,-999.9,-99.9,29.32,North,32767,-999.0,0.0,255,-99.99,,,0.24,Wunderground v.1.15,2013-11-01 13:05:00,
2013-11-01 09:15:00,-999.9,-99.9,29.32,North,32767,-999.0,0.0,255,-99.99,,,0.24,Wunderground v.1.15,2013-11-01 13:15:00,
2013-11-01 09:20:00,-999.9,-99.9,29.33,North,32767,-999.0,0.0,255,-99.99,,,0.24,Wunderground v.1.15,2013-11-01 13:20:00,
2013-11-01 09:25:00,-999.9,-99.9,29.34,North,32767,-999.0,0.0,255,-99.99,,,0.24,Wunderground v.1.15,2013-11-01 13:25:00,
2013-11-01 09:30:00,-999.9,-99.9,29.34,North,32767,-999.0,0.0,255,-99.99,,,0.24,Wunderground v.1.15,2013-11-01 13:30:00,
2013-11-01 09:40:00,48.7,45.3,29.35,WSW,254,18.0,18.0,88,0.00,,,0.24,Wunderground v.1.15,2013-11-01 13:40:00,
2013-11-01 09:45:00,48.8,45.7,29.35,West,260,18.0,19.0,89,0.00,,,0.24,Wunderground v.1.15,2013-11-01 13:45:00,
2013-11-01 09:50:00,48.8,45.7,29.36,West,262,19.0,22.0,89,0.00,,,0.24,Wunderground v.1.15,2013-11-01 13:50:00,
2013-11-01 09:55:00,48.8,45.7,29.36,WSW,256,18.0,22.0,89,0.00,,,0.24,Wunderground v.1.15,2013-11-01 13:55:00,
2013-11-01 10:00:00,48.8,45.4,29.37,West,265,17.0,17.0,88,0.00,,,0.24,Wunderground v.1.15,2013-11-01 14:00:00,
2013-11-01 10:05:00,48.7,45.3,29.37,West,259,19.0,19.0,88,0.00,,,0.24,Wunderground v.1.15,2013-11-01 14:05:00,
2013-11-01 10:15:00,48.7,45.9,29.37,West,261,17.0,20.0,90,0.00,,,0.24,Wunderground v.1.15,2013-11-01 14:15:00,
2013-11-01 10:20:00,48.6,45.5,29.37,West,264,17.0,17.0,89,0.00,,,0.24,Wunderground v.1.15,2013-11-01 14:20:00,
2013-11-01 10:25:00,48.5,45.1,29.38,West,269,17.0,17.0,88,0.00,,,0.24,Wunderground v.1.15,2013-11-01 14:25:00,
2013-11-01 10:30:00,48.5,45.1,29.38,West,269,16.0,16.0,88,0.00,,,0.24,Wunderground v.1.15,2013-11-01 14:30:00,
2013-11-01 10:35:00,48.4,45.6,29.38,West,274,16.0,16.0,90,0.00,,,0.24,Wunderground v.1.15,2013-11-01 14:35:00,
2013-11-01 10:45:00,48.3,45.2,29.39,WSW,253,16.0,16.0,89,0.00,,,0.24,Wunderground v.1.15,2013-11-01 14:45:00,
2013-11-01 10:50:00,48.2,45.4,29.39,WSW,245,15.0,15.0,90,0.00,,,0.24,Wunderground v.1.15,2013-11-01 14:50:00,
2013-11-01 11:00:00,48.3,45.5,29.40,West,264,14.0,14.0,90,0.00,,,0.24,Wunderground v.1.15,2013-11-01 15:00:00,
2013-11-01 11:05:00,48.4,45.3,29.40,SW,234,14.0,16.0,89,0.00,,,0.24,Wunderground v.1.15,2013-11-01 15:05:00,
2013-11-01 11:15:00,48.2,44.8,29.41,West,265,14.0,15.0,88,0.00,,,0.24,Wunderground v.1.15,2013-11-01 15:15:00,
2013-11-01 11:20:00,48.5,45.4,29.41,West,269,13.0,13.0,89,0.00,,,0.24,Wunderground v.1.15,2013-11-01 15:20:00,
2013-11-01 11:25:00,48.3,44.9,29.41,West,271,12.0,13.0,88,0.00,,,0.24,Wunderground v.1.15,2013-11-01 15:25:00,
2013-11-01 11:30:00,48.2,45.1,29.41,West,264,12.0,13.0,89,0.00,,,0.24,Wunderground v.1.15,2013-11-01 15:30:00,
2013-11-01 11:35:00,48.1,45.0,29.41,West,273,11.0,13.0,89,0.00,,,0.24,Wunderground v.1.15,2013-11-01 15:35:00,
2013-11-01 11:40:00,48.1,45.0,29.42,WSW,252,12.0,12.0,89,0.00,,,0.24,Wunderground v.1.15,2013-11-01 15:40:00,
2013-11-01 11:45:00,48.1,44.4,29.42,West,263,13.0,13.0,87,0.00,,,0.24,Wunderground v.1.15,2013-11-01 15:45:00,
2013-11-01 11:55:00,48.0,44.3,29.43,WSW,246,13.0,13.0,87,0.00,,,0.24,Wunderground v.1.15,2013-11-01 15:55:00,
2013-11-01 12:00:00,48.1,44.7,29.43,West,259,13.0,16.0,88,0.00,,,0.24,Wunderground v.1.15,2013-11-01 16:00:00,
2013-11-01 12:05:00,48.0,44.0,29.44,West,267,14.0,16.0,86,0.00,,,0.24,Wunderground v.1.15,2013-11-01 16:05:00,
2013-11-01 12:15:00,47.9,44.2,29.44,West,267,14.0,15.0,87,0.00,,,0.24,Wunderground v.1.15,2013-11-01 16:15:00,
2013-11-01 12:20:00,47.9,44.2,29.44,West,268,13.0,14.0,87,0.00,,,0.24,Wunderground v.1.15,2013-11-01 16:20:00,
2013-11-01 12:25:00,47.9,44.5,29.45,West,264,13.0,14.0,88,0.00,,,0.24,Wunderground v.1.15,2013-11-01 16:25:00,
2013-11-01 12:35:00,48.1,44.4,29.45,WSW,245,12.0,12.0,87,0.00,,,0.24,Wunderground v.1.15,2013-11-01 16:35:00,
2013-11-01 12:40:00,48.1,44.4,29.46,West,265,12.0,14.0,87,0.00,,,0.24,Wunderground v.1.15,2013-11-01 16:40:00,
2013-11-01 12:45:00,48.2,44.8,29.46,West,265,12.0,14.0,88,0.00,,,0.24,Wunderground v.1.15,2013-11-01 16:45:00,
2013-11-01 12:50:00,48.2,43.9,29.46,West,268,12.0,12.0,85,0.00,,,0.24,Wunderground v.1.15,2013-11-01 16:50:00,
2013-11-01 13:00:00,48.4,44.1,29.46,West,267,11.0,11.0,85,0.00,,,0.24,Wunderground v.1.15,2013-11-01 17:00:00,
2013-11-01 13:05:00,48.4,44.1,29.46,West,261,11.0,11.0,85,0.00,,,0.24,Wunderground v.1.15,2013-11-01 17:05:00,
2013-11-01 13:15:00,48.3,44.0,29.47,West,263,11.0,15.0,85,0.00,,,0.24,Wunderground v.1.15,2013-11-01 17:15:00,
2013-11-01 13:20:00,48.3,44.0,29.47,WSW,257,11.0,13.0,85,0.00,,,0.24,Wunderground v.1.15,2013-11-01 17:20:00,
2013-11-01 13:25:00,48.1,43.5,29.47,West,259,11.0,13.0,84,0.00,,,0.24,Wunderground v.1.15,2013-11-01 17:25:00,
2013-11-01 13:35:00,48.1,43.8,29.47,West,271,10.0,11.0,85,0.00,,,0.24,Wunderground v.1.15,2013-11-01 17:35:00,
2013-11-01 13:40:00,48.1,43.8,29.47,WSW,254,10.0,11.0,85,0.00,,,0.24,Wunderground v.1.15,2013-11-01 17:40:00,
2013-11-01 13:45:00,48.1,43.8,29.47,West,262,10.0,11.0,85,0.00,,,0.24,Wunderground v.1.15,2013-11-01 17:45:00,
2013-11-01 13:50:00,48.1,43.8,29.48,West,265,10.0,10.0,85,0.00,,,0.24,Wunderground v.1.15,2013-11-01 17:50:00,
2013-11-01 13:55:00,48.2,44.5,29.48,West,267,9.0,10.0,87,0.00,,,0.24,Wunderground v.1.15,2013-11-01 17:55:00,
2013-11-01 14:05:00,48.1,44.4,29.48,WSW,254,10.0,10.0,87,0.00,,,0.24,Wunderground v.1.15,2013-11-01 18:05:00,
2013-11-01 14:15:00,48.0,44.6,29.48,West,259,10.0,11.0,88,0.00,,,0.24,Wunderground v.1.15,2013-11-01 18:15:00,
2013-11-01 14:20:00,48.0,44.6,29.48,WSW,250,10.0,10.0,88,0.00,,,0.24,Wunderground v.1.15,2013-11-01 18:20:00,
2013-11-01 14:25:00,47.9,44.5,29.48,WSW,257,11.0,11.0,88,0.00,,,0.24,Wunderground v.1.15,2013-11-01 18:25:00,
2013-11-01 14:30:00,47.8,44.4,29.48,West,263,11.0,11.0,88,0.00,,,0.24,Wunderground v.1.15,2013-11-01 18:30:00,
2013-11-01 14:40:00,47.7,44.0,29.49,WSW,250,10.0,10.0,87,0.00,,,0.24,Wunderground v.1.15,2013-11-01 18:40:00,
2013-11-01 14:45:00,47.8,44.4,29.49,West,269,10.0,10.0,88,0.00,,,0.24,Wunderground v.1.15,2013-11-01 18:45:00,
2013-11-01 14:50:00,47.8,44.4,29.49,West,262,10.0,13.0,88,0.00,,,0.24,Wunderground v.1.15,2013-11-01 18:50:00,
2013-11-01 14:55:00,47.7,44.3,29.49,WSW,256,9.0,13.0,88,0.00,,,0.24,Wunderground v.1.15,2013-11-01 18:55:00,
2013-11-01 15:00:00,47.7,44.0,29.50,West,268,9.0,10.0,87,0.00,,,0.24,Wunderground v.1.15,2013-11-01 19:00:00,
2013-11-01 15:05:00,47.6,43.9,29.50,WSW,246,10.0,10.0,87,0.00,,,0.24,Wunderground v.1.15,2013-11-01 19:05:00,
2013-11-01 15:15:00,47.6,43.9,29.51,WSW,255,9.0,9.0,87,0.00,,,0.24,Wunderground v.1.15,2013-11-01 19:15:00,
2013-11-01 15:20:00,47.8,44.1,29.51,West,263,9.0,11.0,87,0.00,,,0.24,Wunderground v.1.15,2013-11-01 19:20:00,
2013-11-01 15:25:00,47.7,44.0,29.52,WSW,249,10.0,11.0,87,0.00,,,0.24,Wunderground v.1.15,2013-11-01 19:25:00,
2013-11-01 15:30:00,47.8,44.1,29.52,West,260,10.0,10.0,87,0.00,,,0.24,Wunderground v.1.15,2013-11-01 19:30:00,
2013-11-01 15:35:00,47.8,43.8,29.52,WSW,256,9.0,10.0,86,0.00,,,0.24,Wunderground v.1.15,2013-11-01 19:35:00,
2013-11-01 15:45:00,47.8,44.1,29.53,WSW,248,10.0,10.0,87,0.00,,,0.24,Wunderground v.1.15,2013-11-01 19:45:00,
2013-11-01 15:50:00,47.7,44.3,29.53,WSW,250,10.0,10.0,88,0.00,,,0.24,Wunderground v.1.15,2013-11-01 19:50:00,
2013-11-01 15:55:00,47.6,43.6,29.53,West,267,9.0,10.0,86,0.00,,,0.24,Wunderground v.1.15,2013-11-01 19:55:00,
2013-11-01 16:00:00,47.6,43.6,29.53,West,265,8.0,8.0,86,0.00,,,0.24,Wunderground v.1.15,2013-11-01 20:00:00,
2013-11-01 16:05:00,47.6,43.6,29.54,WSW,250,8.0,8.0,86,0.00,,,0.24,Wunderground v.1.15,2013-11-01 20:05:00,
2013-11-01 16:15:00,47.7,43.4,29.54,West,261,8.0,9.0,85,0.00,,,0.24,Wunderground v.1.15,2013-11-01 20:15:00,
2013-11-01 16:20:00,47.7,43.4,29.55,West,263,8.0,8.0,85,0.00,,,0.24,Wunderground v.1.15,2013-11-01 20:20:00,
2013-11-01 16:25:00,47.7,43.4,29.55,West,265,7.0,8.0,85,0.00,,,0.24,Wunderground v.1.15,2013-11-01 20:25:00,
2013-11-01 16:30:00,47.8,43.2,29.55,WSW,257,7.0,9.0,84,0.00,,,0.24,Wunderground v.1.15,2013-11-01 20:30:00,
2013-11-01 16:40:00,47.8,43.8,29.55,WSW,254,8.0,8.0,86,0.00,,,0.24,Wunderground v.1.15,2013-11-01 20:40:00,
2013-11-01 16:45:00,47.7,43.7,29.55,West,276,7.0,8.0,86,0.00,,,0.24,Wunderground v.1.15,2013-11-01 20:45:00,
2013-11-01 16:55:00,47.5,43.8,29.56,West,273,7.0,9.0,87,0.00,,,0.24,Wunderground v.1.15,2013-11-01 20:55:00,
2013-11-01 17:00:00,47.2,43.2,29.56,NNW,330,4.0,4.0,86,0.00,,,0.24,Wunderground v.1.15,2013-11-01 21:00:00,
2013-11-01 17:05:00,46.9,42.9,29.57,NW,312,1.0,4.0,86,0.00,,,0.24,Wunderground v.1.15,2013-11-01 21:05:00,
2013-11-01 17:15:00,46.5,42.8,29.57,NW,317,1.0,1.0,87,0.00,,,0.24,Wunderground v.1.15,2013-11-01 21:15:00,
2013-11-01 17:25:00,46.1,42.4,29.57,NNW,339,1.0,1.0,87,0.00,,,0.24,Wunderground v.1.15,2013-11-01 21:25:00,
2013-11-01 17:30:00,46.0,42.3,29.58,NNW,338,1.0,1.0,87,0.00,,,0.24,Wunderground v.1.15,2013-11-01 21:30:00,
2013-11-01 17:35:00,45.9,42.2,29.58,NNW,338,0.0,1.0,87,0.00,,,0.24,Wunderground v.1.15,2013-11-01 21:35:00,
2013-11-01 17:40:00,45.8,42.2,29.58,North,360,0.0,0.0,87,0.00,,,0.24,Wunderground v.1.15,2013-11-01 21:40:00,
2013-11-01 17:45:00,45.7,42.1,29.58,North,360,0.0,0.0,87,0.00,,,0.24,Wunderground v.1.15,2013-11-01 21:45:00,
2013-11-01 17:55:00,45.7,42.1,29.59,North,349,0.0,0.0,87,0.00,,,0.24,Wunderground v.1.15,2013-11-01 21:55:00,
2013-11-01 18:00:00,45.7,42.1,29.59,North,349,0.0,0.0,87,0.00,,,0.24,Wunderground v.1.15,2013-11-01 22:00:00,
2013-11-01 18:05:00,45.7,42.1,29.59,North,349,0.0,0.0,87,0.00,,,0.24,Wunderground v.1.15,2013-11-01 22:05:00,
2013-11-01 18:15:00,45.5,41.9,29.59,NNW,327,1.0,2.0,87,0.00,,,0.24,Wunderground v.1.15,2013-11-01 22:15:00,
2013-11-01 18:20:00,45.3,42.0,29.59,NNW,327,0.0,0.0,88,0.00,,,0.24,Wunderground v.1.15,2013-11-01 22:20:00,
2013-11-01 18:30:00,45.0,42.0,29.60,NNW,327,0.0,0.0,89,0.00,,,0.24,Wunderground v.1.15,2013-11-01 22:30:00,
2013-11-01 18:35:00,44.9,41.9,29.60,NNW,327,0.0,0.0,89,0.00,,,0.24,Wunderground v.1.15,2013-11-01 22:35:00,
2013-11-01 18:40:00,44.7,41.9,29.60,NNW,327,0.0,0.0,90,0.00,,,0.24,Wunderground v.1.15,2013-11-01 22:40:00,
2013-11-01 18:45:00,44.6,41.8,29.60,NNW,327,0.0,0.0,90,0.00,,,0.25,Wunderground v.1.15,2013-11-01 22:45:00,
2013-11-01 18:50:00,44.5,42.0,29.61,NNW,327,0.0,2.0,91,0.00,,,0.25,Wunderground v.1.15,2013-11-01 22:50:00,
2013-11-01 19:00:00,44.2,42.0,29.61,NNW,327,0.0,1.0,92,0.00,,,0.25,Wunderground v.1.15,2013-11-01 23:00:00,
2013-11-01 19:05:00,44.1,41.9,29.61,NNW,327,0.0,1.0,92,0.00,,,0.25,Wunderground v.1.15,2013-11-01 23:05:00,
2013-11-01 19:15:00,43.9,42.0,29.62,NNW,327,0.0,0.0,93,0.00,,,0.25,Wunderground v.1.15,2013-11-01 23:15:00,
2013-11-01 19:20:00,43.8,41.9,29.62,NNW,327,0.0,3.0,93,0.00,,,0.25,Wunderground v.1.15,2013-11-01 23:20:00,
2013-11-01 19:25:00,43.7,41.8,29.63,NNW,327,0.0,3.0,93,0.00,,,0.26,Wunderground v.1.15,2013-11-01 23:25:00,
2013-11-01 19:35:00,43.6,42.0,29.63,North,355,0.0,1.0,94,0.00,,,0.26,Wunderground v.1.15,2013-11-01 23:35:00,
2013-11-01 19:40:00,43.4,41.8,29.64,NNW,340,1.0,1.0,94,0.00,,,0.26,Wunderground v.1.15,2013-11-01 23:40:00,
2013-11-01 19:45:00,43.4,41.8,29.64,NNW,348,1.0,1.0,94,0.00,,,0.26,Wunderground v.1.15,2013-11-01 23:45:00,
2013-11-01 19:50:00,43.3,41.7,29.64,NNW,348,1.0,1.0,94,0.00,,,0.27,Wunderground v.1.15,2013-11-01 23:50:00,
2013-11-01 19:55:00,43.3,41.7,29.64,NNW,348,0.0,1.0,94,0.00,,,0.27,Wunderground v.1.15,2013-11-01 23:55:00,
2013-11-01 20:05:00,43.1,41.5,29.65,NNW,346,0.0,0.0,94,0.00,,,0.27,Wunderground v.1.15,2013-11-02 00:05:00,
2013-11-01 20:15:00,43.0,41.7,29.65,NNW,346,0.0,1.0,95,0.00,,,0.27,Wunderground v.1.15,2013-11-02 00:15:00,
2013-11-01 20:20:00,43.0,41.4,29.65,NNW,347,0.0,3.0,94,0.00,,,0.27,Wunderground v.1.15,2013-11-02 00:20:00,
2013-11-01 20:25:00,42.9,41.3,29.65,NNW,330,0.0,3.0,94,0.00,,,0.27,Wunderground v.1.15,2013-11-02 00:25:00,
2013-11-01 20:30:00,42.9,41.3,29.66,NNW,330,0.0,0.0,94,0.00,,,0.27,Wunderground v.1.15,2013-11-02 00:30:00,
2013-11-01 20:40:00,42.8,41.5,29.66,NNW,330,0.0,2.0,95,0.00,,,0.27,Wunderground v.1.15,2013-11-02 00:40:00,
2013-11-01 20:45:00,42.7,41.1,29.66,NNW,348,0.0,2.0,94,0.00,,,0.27,Wunderground v.1.15,2013-11-02 00:45:00,
2013-11-01 20:50:00,42.7,41.1,29.66,NNW,340,0.0,0.0,94,0.00,,,0.27,Wunderground v.1.15,2013-11-02 00:50:00,
2013-11-01 20:55:00,42.7,41.1,29.66,NNW,340,0.0,0.0,94,0.00,,,0.27,Wunderground v.1.15,2013-11-02 00:55:00,
2013-11-01 21:00:00,42.7,41.1,29.66,NNW,338,0.0,0.0,94,0.00,,,0.27,Wunderground v.1.15,2013-11-02 01:00:00,
2013-11-01 21:05:00,42.6,41.0,29.66,NNW,342,0.0,0.0,94,0.00,,,0.27,Wunderground v.1.15,2013-11-02 01:05:00,
2013-11-01 21:15:00,42.5,40.9,29.66,NNW,337,1.0,2.0,94,0.00,,,0.27,Wunderground v.1.15,2013-11-02 01:15:00,
2013-11-01 21:20:00,42.5,40.9,29.66,NNW,342,1.0,1.0,94,0.00,,,0.27,Wunderground v.1.15,2013-11-02 01:20:00,
2013-11-01 21:25:00,42.5,40.9,29.66,NNW,332,1.0,1.0,94,0.00,,,0.27,Wunderground v.1.15,2013-11-02 01:25:00,
2013-11-01 21:30:00,42.4,40.8,29.66,NNW,334,1.0,3.0,94,0.00,,,0.27,Wunderground v.1.15,2013-11-02 01:30:00,
2013-11-01 21:35:00,42.4,40.8,29.66,North,355,1.0,3.0,94,0.00,,,0.27,Wunderground v.1.15,2013-11-02 01:35:00,
2013-11-01 21:45:00,42.4,40.8,29.67,NNW,348,1.0,2.0,94,0.00,,,0.27,Wunderground v.1.15,2013-11-02 01:45:00,
2013-11-01 21:50:00,42.3,40.7,29.67,NNW,338,1.0,1.0,94,0.00,,,0.27,Wunderground v.1.15,2013-11-02 01:50:00,
2013-11-01 21:55:00,42.3,40.4,29.67,NW,322,1.0,1.0,93,0.00,,,0.27,Wunderground v.1.15,2013-11-02 01:55:00,
2013-11-01 22:00:00,42.3,40.4,29.67,NNW,336,1.0,1.0,93,0.00,,,0.27,Wunderground v.1.15,2013-11-02 02:00:00,
2013-11-01 22:05:00,42.2,40.3,29.67,NNW,345,0.0,1.0,93,0.00,,,0.27,Wunderground v.1.15,2013-11-02 02:05:00,
2013-11-01 22:15:00,42.0,39.8,29.68,NNW,335,1.0,1.0,92,0.00,,,0.27,Wunderground v.1.15,2013-11-02 02:15:00,
2013-11-01 22:20:00,42.0,39.8,29.68,NW,319,0.0,0.0,92,0.00,,,0.27,Wunderground v.1.15,2013-11-02 02:20:00,
2013-11-01 22:25:00,41.9,39.5,29.68,North,355,0.0,4.0,91,0.00,,,0.27,Wunderground v.1.15,2013-11-02 02:25:00,
2013-11-01 22:30:00,41.8,39.4,29.68,NNW,345,1.0,1.0,91,0.00,,,0.27,Wunderground v.1.15,2013-11-02 02:30:00,
2013-11-01 22:35:00,41.8,39.1,29.68,NNW,335,1.0,1.0,90,0.00,,,0.27,Wunderground v.1.15,2013-11-02 02:35:00,
2013-11-01 22:40:00,41.8,39.1,29.69,NNW,346,1.0,4.0,90,0.00,,,0.27,Wunderground v.1.15,2013-11-02 02:40:00,
2013-11-01 22:50:00,41.7,38.7,29.69,NNW,344,1.0,1.0,89,0.00,,,0.27,Wunderground v.1.15,2013-11-02 02:50:00,
2013-11-01 22:55:00,41.7,38.7,29.69,NNW,346,1.0,1.0,89,0.00,,,0.27,Wunderground v.1.15,2013-11-02 02:55:00,
2013-11-01 23:00:00,41.7,38.7,29.70,NNW,346,1.0,1.0,89,0.00,,,0.27,Wunderground v.1.15,2013-11-02 03:00:00,
2013-11-01 23:05:00,41.7,38.7,29.70,NNW,346,1.0,1.0,89,0.00,,,0.27,Wunderground v.1.15,2013-11-02 03:05:00,
2013-11-01 23:15:00,41.8,38.8,29.70,NNW,348,0.0,1.0,89,0.00,,,0.27,Wunderground v.1.15,2013-11-02 03:15:00,
2013-11-01 23:20:00,41.8,38.8,29.69,NNW,340,0.0,0.0,89,0.00,,,0.27,Wunderground v.1.15,2013-11-02 03:20:00,
2013-11-01 23:25:00,41.8,38.8,29.70,NW,309,1.0,1.0,89,0.00,,,0.27,Wunderground v.1.15,2013-11-02 03:25:00,
2013-11-01 23:30:00,41.8,38.5,29.70,NW,309,0.0,0.0,88,0.00,,,0.27,Wunderground v.1.15,2013-11-02 03:30:00,
2013-11-01 23:40:00,41.8,38.8,29.70,NW,309,0.0,0.0,89,0.00,,,0.27,Wunderground v.1.15,2013-11-02 03:40:00,
2013-11-01 23:45:00,41.7,38.7,29.70,NW,309,0.0,0.0,89,0.00,,,0.27,Wunderground v.1.15,2013-11-02 03:45:00,
2013-11-01 23:50:00,41.6,38.3,29.70,NNW,340,0.0,0.0,88,0.00,,,0.27,Wunderground v.1.15,2013-11-02 03:50:00,